Aviation Digital Data Service (ADDS)

Output produced by METARs form (1908 UTC 19 April 2019)
found at http://www.aviationweather.gov/metar/data/
 
METAR text: OMAD 191900Z 10004KT CAVOK 31/07 Q1009 NOSIG
Conditions at: OMAD (ABU DHABI/BATEEN, AE) observed 1900 UTC 19 April 2019
Temperature: 31.0°C (88°F)
Dewpoint: 7.0°C (45°F) [RH = 22%]
Pressure (altimeter): 29.79 inches Hg (1009.0 mb)
Winds: from the E (100 degrees) at 5 MPH (4 knots; 2.1 m/s)
Visibility: 6 or more miles (10+ km)
Ceiling: ceiling and visibility are OK
Clouds: unknown
Weather: no significant weather observed at this time

METAR text: OMAD 191800Z 07005KT CAVOK 31/08 Q1009 NOSIG
Conditions at: OMAD (ABU DHABI/BATEEN, AE) observed 1800 UTC 19 April 2019
Temperature: 31.0°C (88°F)
Dewpoint: 8.0°C (46°F) [RH = 24%]
Pressure (altimeter): 29.79 inches Hg (1009.0 mb)
Winds: from the ENE (70 degrees) at 6 MPH (5 knots; 2.6 m/s)
Visibility: 6 or more miles (10+ km)
Ceiling: ceiling and visibility are OK
Clouds: unknown
Weather: no significant weather observed at this time

METAR text: OMAD 191700Z 06006KT CAVOK 32/11 Q1008 NOSIG
Conditions at: OMAD (ABU DHABI/BATEEN, AE) observed 1700 UTC 19 April 2019
Temperature: 32.0°C (90°F)
Dewpoint: 11.0°C (52°F) [RH = 28%]
Pressure (altimeter): 29.76 inches Hg (1008.0 mb)
Winds: from the ENE (60 degrees) at 7 MPH (6 knots; 3.1 m/s)
Visibility: 6 or more miles (10+ km)
Ceiling: ceiling and visibility are OK
Clouds: unknown
Weather: no significant weather observed at this time

METAR text: OMAD 191600Z 03003KT 330V060 CAVOK 31/12 Q1008 NOSIG
Conditions at: OMAD (ABU DHABI/BATEEN, AE) observed 1600 UTC 19 April 2019
Temperature: 31.0°C (88°F)
Dewpoint: 12.0°C (54°F) [RH = 31%]
Pressure (altimeter): 29.76 inches Hg (1008.0 mb)
Winds: from the NNE (30 degrees) at 3 MPH (3 knots; 1.5 m/s)
Visibility: 6 or more miles (10+ km)
Ceiling: ceiling and visibility are OK
Clouds: unknown
Weather: no significant weather observed at this time

METAR text: OMAD 191500Z 02004KT 360V060 CAVOK 32/13 Q1008 NOSIG
Conditions at: OMAD (ABU DHABI/BATEEN, AE) observed 1500 UTC 19 April 2019
Temperature: 32.0°C (90°F)
Dewpoint: 13.0°C (55°F) [RH = 32%]
Pressure (altimeter): 29.76 inches Hg (1008.0 mb)
Winds: from the NNE (20 degrees) at 5 MPH (4 knots; 2.1 m/s)
Visibility: 6 or more miles (10+ km)
Ceiling: ceiling and visibility are OK
Clouds: unknown
Weather: no significant weather observed at this time

METAR text: OMAD 191400Z 03005KT CAVOK 34/15 Q1008 NOSIG
Conditions at: OMAD (ABU DHABI/BATEEN, AE) observed 1400 UTC 19 April 2019
Temperature: 34.0°C (93°F)
Dewpoint: 15.0°C (59°F) [RH = 32%]
Pressure (altimeter): 29.76 inches Hg (1008.0 mb)
Winds: from the NNE (30 degrees) at 6 MPH (5 knots; 2.6 m/s)
Visibility: 6 or more miles (10+ km)
Ceiling: ceiling and visibility are OK
Clouds: unknown
Weather: no significant weather observed at this time

METAR text: OMAD 191300Z 35006KT 310V020 CAVOK 37/07 Q1008 TEMPO VRB02KT
Conditions at: OMAD (ABU DHABI/BATEEN, AE) observed 1300 UTC 19 April 2019
Temperature: 37.0°C (99°F)
Dewpoint: 7.0°C (45°F) [RH = 16%]
Pressure (altimeter): 29.76 inches Hg (1008.0 mb)
Winds: from the N (350 degrees) at 7 MPH (6 knots; 3.1 m/s)
Visibility: 6 or more miles (10+ km)
Ceiling: ceiling and visibility are OK
Clouds: unknown
Weather: no significant weather observed at this time

METAR text: OMAD 191200Z 17006KT 120V230 CAVOK 39/01 Q1008 TEMPO VRB02KT
Conditions at: OMAD (ABU DHABI/BATEEN, AE) observed 1200 UTC 19 April 2019
Temperature: 39.0°C (102°F)
Dewpoint: 1.0°C (34°F) [RH =  9%]
Pressure (altimeter): 29.76 inches Hg (1008.0 mb)
Winds: from the S (170 degrees) at 7 MPH (6 knots; 3.1 m/s)
Visibility: 6 or more miles (10+ km)
Ceiling: ceiling and visibility are OK
Clouds: unknown
Weather: no significant weather observed at this time

METAR text: OMAD 191100Z 14008KT 090V190 CAVOK 39/01 Q1008 TEMPO VRB02KT
Conditions at: OMAD (ABU DHABI/BATEEN, AE) observed 1100 UTC 19 April 2019
Temperature: 39.0°C (102°F)
Dewpoint: 1.0°C (34°F) [RH =  9%]
Pressure (altimeter): 29.76 inches Hg (1008.0 mb)
Winds: from the SE (140 degrees) at 9 MPH (8 knots; 4.1 m/s)
Visibility: 6 or more miles (10+ km)
Ceiling: ceiling and visibility are OK
Clouds: unknown
Weather: no significant weather observed at this time

METAR text: OMAD 191000Z VRB04KT CAVOK 39/01 Q1009 NOSIG
Conditions at: OMAD (ABU DHABI/BATEEN, AE) observed 1000 UTC 19 April 2019
Temperature: 39.0°C (102°F)
Dewpoint: 1.0°C (34°F) [RH =  9%]
Pressure (altimeter): 29.79 inches Hg (1009.0 mb)
Winds: variable direction winds at 5 MPH (4 knots; 2.1 m/s)
Visibility: 6 or more miles (10+ km)
Ceiling: ceiling and visibility are OK
Clouds: unknown
Weather: no significant weather observed at this time

METAR text: OMAD 190900Z 21004KT 130V280 CAVOK 39/02 Q1010 BECMG 27010KT
Conditions at: OMAD (ABU DHABI/BATEEN, AE) observed 0900 UTC 19 April 2019
Temperature: 39.0°C (102°F)
Dewpoint: 2.0°C (36°F) [RH = 10%]
Pressure (altimeter): 29.82 inches Hg (1010.0 mb)
Winds: from the SSW (210 degrees) at 5 MPH (4 knots; 2.1 m/s)
Visibility: 6 or more miles (10+ km)
Ceiling: ceiling and visibility are OK
Clouds: unknown
Weather: no significant weather observed at this time

METAR text: OMAD 190800Z 20006KT 140V250 CAVOK 37/04 Q1011 NOSIG
Conditions at: OMAD (ABU DHABI/BATEEN, AE) observed 0800 UTC 19 April 2019
Temperature: 37.0°C (99°F)
Dewpoint: 4.0°C (39°F) [RH = 13%]
Pressure (altimeter): 29.85 inches Hg (1011.0 mb)
Winds: from the SSW (200 degrees) at 7 MPH (6 knots; 3.1 m/s)
Visibility: 6 or more miles (10+ km)
Ceiling: ceiling and visibility are OK
Clouds: unknown
Weather: no significant weather observed at this time

METAR text: OMAD 190700Z 18006KT 120V240 CAVOK 36/03 Q1011 NOSIG
Conditions at: OMAD (ABU DHABI/BATEEN, AE) observed 0700 UTC 19 April 2019
Temperature: 36.0°C (97°F)
Dewpoint: 3.0°C (37°F) [RH = 13%]
Pressure (altimeter): 29.85 inches Hg (1011.0 mb)
Winds: from the S (180 degrees) at 7 MPH (6 knots; 3.1 m/s)
Visibility: 6 or more miles (10+ km)
Ceiling: ceiling and visibility are OK
Clouds: unknown
Weather: no significant weather observed at this time

METAR text: OMAD 190600Z 16008KT CAVOK 35/03 Q1011 NOSIG
Conditions at: OMAD (ABU DHABI/BATEEN, AE) observed 0600 UTC 19 April 2019
Temperature: 35.0°C (95°F)
Dewpoint: 3.0°C (37°F) [RH = 13%]
Pressure (altimeter): 29.85 inches Hg (1011.0 mb)
Winds: from the SSE (160 degrees) at 9 MPH (8 knots; 4.1 m/s)
Visibility: 6 or more miles (10+ km)
Ceiling: ceiling and visibility are OK
Clouds: unknown
Weather: no significant weather observed at this time

METAR text: OMAD 190500Z 15008KT CAVOK 32/02 Q1011 NOSIG
Conditions at: OMAD (ABU DHABI/BATEEN, AE) observed 0500 UTC 19 April 2019
Temperature: 32.0°C (90°F)
Dewpoint: 2.0°C (36°F) [RH = 15%]
Pressure (altimeter): 29.85 inches Hg (1011.0 mb)
Winds: from the SSE (150 degrees) at 9 MPH (8 knots; 4.1 m/s)
Visibility: 6 or more miles (10+ km)
Ceiling: ceiling and visibility are OK
Clouds: unknown
Weather: no significant weather observed at this time

METAR text: OMAD 190400Z 15005KT CAVOK 29/04 Q1010 NOSIG
Conditions at: OMAD (ABU DHABI/BATEEN, AE) observed 0400 UTC 19 April 2019
Temperature: 29.0°C (84°F)
Dewpoint: 4.0°C (39°F) [RH = 20%]
Pressure (altimeter): 29.82 inches Hg (1010.0 mb)
Winds: from the SSE (150 degrees) at 6 MPH (5 knots; 2.6 m/s)
Visibility: 6 or more miles (10+ km)
Ceiling: ceiling and visibility are OK
Clouds: unknown
Weather: no significant weather observed at this time

METAR text: OMAD 190300Z 12004KT CAVOK 25/05 Q1010 BECMG 18010KT
Conditions at: OMAD (ABU DHABI/BATEEN, AE) observed 0300 UTC 19 April 2019
Temperature: 25.0°C (77°F)
Dewpoint: 5.0°C (41°F) [RH = 28%]
Pressure (altimeter): 29.82 inches Hg (1010.0 mb)
Winds: from the ESE (120 degrees) at 5 MPH (4 knots; 2.1 m/s)
Visibility: 6 or more miles (10+ km)
Ceiling: ceiling and visibility are OK
Clouds: unknown
Weather: no significant weather observed at this time

METAR text: OMAD 190200Z 12004KT CAVOK 25/02 Q1009 BECMG 18010KT
Conditions at: OMAD (ABU DHABI/BATEEN, AE) observed 0200 UTC 19 April 2019
Temperature: 25.0°C (77°F)
Dewpoint: 2.0°C (36°F) [RH = 22%]
Pressure (altimeter): 29.79 inches Hg (1009.0 mb)
Winds: from the ESE (120 degrees) at 5 MPH (4 knots; 2.1 m/s)
Visibility: 6 or more miles (10+ km)
Ceiling: ceiling and visibility are OK
Clouds: unknown
Weather: no significant weather observed at this time

METAR text: OMAD 190100Z 12007KT CAVOK 25/03 Q1009 NOSIG
Conditions at: OMAD (ABU DHABI/BATEEN, AE) observed 0100 UTC 19 April 2019
Temperature: 25.0°C (77°F)
Dewpoint: 3.0°C (37°F) [RH = 24%]
Pressure (altimeter): 29.79 inches Hg (1009.0 mb)
Winds: from the ESE (120 degrees) at 8 MPH (7 knots; 3.6 m/s)
Visibility: 6 or more miles (10+ km)
Ceiling: ceiling and visibility are OK
Clouds: unknown
Weather: no significant weather observed at this time

METAR text: OMAD 190000Z 12005KT CAVOK 26/05 Q1009 NOSIG
Conditions at: OMAD (ABU DHABI/BATEEN, AE) observed 0000 UTC 19 April 2019
Temperature: 26.0°C (79°F)
Dewpoint: 5.0°C (41°F) [RH = 26%]
Pressure (altimeter): 29.79 inches Hg (1009.0 mb)
Winds: from the ESE (120 degrees) at 6 MPH (5 knots; 2.6 m/s)
Visibility: 6 or more miles (10+ km)
Ceiling: ceiling and visibility are OK
Clouds: unknown
Weather: no significant weather observed at this time

METAR text: OMAD 182300Z 11004KT CAVOK 27/05 Q1009 NOSIG
Conditions at: OMAD (ABU DHABI/BATEEN, AE) observed 2300 UTC 18 April 2019
Temperature: 27.0°C (81°F)
Dewpoint: 5.0°C (41°F) [RH = 24%]
Pressure (altimeter): 29.79 inches Hg (1009.0 mb)
Winds: from the ESE (110 degrees) at 5 MPH (4 knots; 2.1 m/s)
Visibility: 6 or more miles (10+ km)
Ceiling: ceiling and visibility are OK
Clouds: unknown
Weather: no significant weather observed at this time

METAR text: OMAD 182200Z 11004KT CAVOK 26/07 Q1009 NOSIG
Conditions at: OMAD (ABU DHABI/BATEEN, AE) observed 2200 UTC 18 April 2019
Temperature: 26.0°C (79°F)
Dewpoint: 7.0°C (45°F) [RH = 30%]
Pressure (altimeter): 29.79 inches Hg (1009.0 mb)
Winds: from the ESE (110 degrees) at 5 MPH (4 knots; 2.1 m/s)
Visibility: 6 or more miles (10+ km)
Ceiling: ceiling and visibility are OK
Clouds: unknown
Weather: no significant weather observed at this time

METAR text: OMAD 182100Z 06003KT 020V100 CAVOK 27/09 Q1010 NOSIG
Conditions at: OMAD (ABU DHABI/BATEEN, AE) observed 2100 UTC 18 April 2019
Temperature: 27.0°C (81°F)
Dewpoint: 9.0°C (48°F) [RH = 32%]
Pressure (altimeter): 29.82 inches Hg (1010.0 mb)
Winds: from the ENE (60 degrees) at 3 MPH (3 knots; 1.5 m/s)
Visibility: 6 or more miles (10+ km)
Ceiling: ceiling and visibility are OK
Clouds: unknown
Weather: no significant weather observed at this time

METAR text: OMAD 182000Z 06004KT 030V100 CAVOK 28/08 Q1010 NOSIG
Conditions at: OMAD (ABU DHABI/BATEEN, AE) observed 2000 UTC 18 April 2019
Temperature: 28.0°C (82°F)
Dewpoint: 8.0°C (46°F) [RH = 28%]
Pressure (altimeter): 29.82 inches Hg (1010.0 mb)
Winds: from the ENE (60 degrees) at 5 MPH (4 knots; 2.1 m/s)
Visibility: 6 or more miles (10+ km)
Ceiling: ceiling and visibility are OK
Clouds: unknown
Weather: no significant weather observed at this time

METAR text: OMAD 181900Z 06005KT 030V090 CAVOK 28/08 Q1010 NOSIG
Conditions at: OMAD (ABU DHABI/BATEEN, AE) observed 1900 UTC 18 April 2019
Temperature: 28.0°C (82°F)
Dewpoint: 8.0°C (46°F) [RH = 28%]
Pressure (altimeter): 29.82 inches Hg (1010.0 mb)
Winds: from the ENE (60 degrees) at 6 MPH (5 knots; 2.6 m/s)
Visibility: 6 or more miles (10+ km)
Ceiling: ceiling and visibility are OK
Clouds: unknown
Weather: no significant weather observed at this time

METAR text: OMAD 181800Z 05004KT 010V080 CAVOK 28/14 Q1010 NOSIG
Conditions at: OMAD (ABU DHABI/BATEEN, AE) observed 1800 UTC 18 April 2019
Temperature: 28.0°C (82°F)
Dewpoint: 14.0°C (57°F) [RH = 42%]
Pressure (altimeter): 29.82 inches Hg (1010.0 mb)
Winds: from the NE (50 degrees) at 5 MPH (4 knots; 2.1 m/s)
Visibility: 6 or more miles (10+ km)
Ceiling: ceiling and visibility are OK
Clouds: unknown
Weather: no significant weather observed at this time

METAR text: OMAD 181700Z 03004KT CAVOK 28/16 Q1010 NOSIG
Conditions at: OMAD (ABU DHABI/BATEEN, AE) observed 1700 UTC 18 April 2019
Temperature: 28.0°C (82°F)
Dewpoint: 16.0°C (61°F) [RH = 48%]
Pressure (altimeter): 29.82 inches Hg (1010.0 mb)
Winds: from the NNE (30 degrees) at 5 MPH (4 knots; 2.1 m/s)
Visibility: 6 or more miles (10+ km)
Ceiling: ceiling and visibility are OK
Clouds: unknown
Weather: no significant weather observed at this time

METAR text: OMAD 181600Z 02004KT CAVOK 29/15 Q1010 NOSIG
Conditions at: OMAD (ABU DHABI/BATEEN, AE) observed 1600 UTC 18 April 2019
Temperature: 29.0°C (84°F)
Dewpoint: 15.0°C (59°F) [RH = 43%]
Pressure (altimeter): 29.82 inches Hg (1010.0 mb)
Winds: from the NNE (20 degrees) at 5 MPH (4 knots; 2.1 m/s)
Visibility: 6 or more miles (10+ km)
Ceiling: ceiling and visibility are OK
Clouds: unknown
Weather: no significant weather observed at this time

METAR text: OMAD 181500Z 01006KT CAVOK 30/14 Q1010 NOSIG
Conditions at: OMAD (ABU DHABI/BATEEN, AE) observed 1500 UTC 18 April 2019
Temperature: 30.0°C (86°F)
Dewpoint: 14.0°C (57°F) [RH = 38%]
Pressure (altimeter): 29.82 inches Hg (1010.0 mb)
Winds: from the N (10 degrees) at 7 MPH (6 knots; 3.1 m/s)
Visibility: 6 or more miles (10+ km)
Ceiling: ceiling and visibility are OK
Clouds: unknown
Weather: no significant weather observed at this time

METAR text: OMAD 181400Z 36007KT CAVOK 31/14 Q1009 NOSIG
Conditions at: OMAD (ABU DHABI/BATEEN, AE) observed 1400 UTC 18 April 2019
Temperature: 31.0°C (88°F)
Dewpoint: 14.0°C (57°F) [RH = 36%]
Pressure (altimeter): 29.79 inches Hg (1009.0 mb)
Winds: from the N (360 degrees) at 8 MPH (7 knots; 3.6 m/s)
Visibility: 6 or more miles (10+ km)
Ceiling: ceiling and visibility are OK
Clouds: unknown
Weather: no significant weather observed at this time

METAR text: OMAD 181300Z 34008KT 310V020 CAVOK 33/18 Q1010 NOSIG
Conditions at: OMAD (ABU DHABI/BATEEN, AE) observed 1300 UTC 18 April 2019
Temperature: 33.0°C (91°F)
Dewpoint: 18.0°C (64°F) [RH = 41%]
Pressure (altimeter): 29.82 inches Hg (1010.0 mb)
Winds: from the NNW (340 degrees) at 9 MPH (8 knots; 4.1 m/s)
Visibility: 6 or more miles (10+ km)
Ceiling: ceiling and visibility are OK
Clouds: unknown
Weather: no significant weather observed at this time

METAR text: OMAD 181200Z 33010KT CAVOK 37/01 Q1009 NOSIG
Conditions at: OMAD (ABU DHABI/BATEEN, AE) observed 1200 UTC 18 April 2019
Temperature: 37.0°C (99°F)
Dewpoint: 1.0°C (34°F) [RH = 10%]
Pressure (altimeter): 29.79 inches Hg (1009.0 mb)
Winds: from the NNW (330 degrees) at 12 MPH (10 knots; 5.1 m/s)
Visibility: 6 or more miles (10+ km)
Ceiling: ceiling and visibility are OK
Clouds: unknown
Weather: no significant weather observed at this time

METAR text: OMAD 181100Z 35008KT 320V030 CAVOK 38/03 Q1010 NOSIG
Conditions at: OMAD (ABU DHABI/BATEEN, AE) observed 1100 UTC 18 April 2019
Temperature: 38.0°C (100°F)
Dewpoint: 3.0°C (37°F) [RH = 11%]
Pressure (altimeter): 29.82 inches Hg (1010.0 mb)
Winds: from the N (350 degrees) at 9 MPH (8 knots; 4.1 m/s)
Visibility: 6 or more miles (10+ km)
Ceiling: ceiling and visibility are OK
Clouds: unknown
Weather: no significant weather observed at this time

METAR text: OMAD 181000Z 35007KT 310V030 CAVOK 38/03 Q1011 NOSIG
Conditions at: OMAD (ABU DHABI/BATEEN, AE) observed 1000 UTC 18 April 2019
Temperature: 38.0°C (100°F)
Dewpoint: 3.0°C (37°F) [RH = 11%]
Pressure (altimeter): 29.85 inches Hg (1011.0 mb)
Winds: from the N (350 degrees) at 8 MPH (7 knots; 3.6 m/s)
Visibility: 6 or more miles (10+ km)
Ceiling: ceiling and visibility are OK
Clouds: unknown
Weather: no significant weather observed at this time

METAR text: OMAD 180900Z VRB05KT CAVOK 37/02 Q1012 BECMG 34010KT
Conditions at: OMAD (ABU DHABI/BATEEN, AE) observed 0900 UTC 18 April 2019
Temperature: 37.0°C (99°F)
Dewpoint: 2.0°C (36°F) [RH = 11%]
Pressure (altimeter): 29.88 inches Hg (1012.0 mb)
Winds: variable direction winds at 6 MPH (5 knots; 2.6 m/s)
Visibility: 6 or more miles (10+ km)
Ceiling: ceiling and visibility are OK
Clouds: unknown
Weather: no significant weather observed at this time

METAR text: OMAD 180800Z 01005KT CAVOK 36/03 Q1012 NOSIG
Conditions at: OMAD (ABU DHABI/BATEEN, AE) observed 0800 UTC 18 April 2019
Temperature: 36.0°C (97°F)
Dewpoint: 3.0°C (37°F) [RH = 13%]
Pressure (altimeter): 29.88 inches Hg (1012.0 mb)
Winds: from the N (10 degrees) at 6 MPH (5 knots; 2.6 m/s)
Visibility: 6 or more miles (10+ km)
Ceiling: ceiling and visibility are OK
Clouds: unknown
Weather: no significant weather observed at this time

Forecast for: OMAD (ABU DHABI/BATEEN, AE)
Text: TAF OMAD 191700Z 1918/2100 07006KT 8000 NSC
Forecast period: 1800 UTC 19 April 2019 to 0100 UTC 20 April 2019
Forecast type: FROM: standard forecast or significant change
Winds: from the ENE (70 degrees) at 7 MPH (6 knots; 3.1 m/s)
Visibility: 5 miles (8 km)
Ceiling: unknown
Clouds: missing
Weather: no significant weather forecast for this period
Text: BECMG 2001/2003 16008KT
Forecast period: 0100 to 0800 UTC 20 April 2019
Forecast type: BECOMING: Conditions expected to become as follows by 0300 UTC 20 April 2019
Winds: from the SSE (160 degrees) at 9 MPH (8 knots; 4.1 m/s)
Visibility: 5 miles (8 km)
Ceiling: unknown
Clouds: missing
Weather: no significant weather forecast for this period
Text: BECMG 2008/2010 24008KT
Forecast period: 0800 to 1100 UTC 20 April 2019
Forecast type: BECOMING: Conditions expected to become as follows by 1000 UTC 20 April 2019
Winds: from the WSW (240 degrees) at 9 MPH (8 knots; 4.1 m/s)
Visibility: 5 miles (8 km)
Ceiling: unknown
Clouds: missing
Weather: no significant weather forecast for this period
Text: BECMG 2011/2013 34010KT
Forecast period: 1100 to 1600 UTC 20 April 2019
Forecast type: BECOMING: Conditions expected to become as follows by 1300 UTC 20 April 2019
Winds: from the NNW (340 degrees) at 12 MPH (10 knots; 5.1 m/s)
Visibility: 5 miles (8 km)
Ceiling: unknown
Clouds: missing
Weather: no significant weather forecast for this period
Text: BECMG 2016/2018 06008KT
Forecast period: 1600 UTC 20 April 2019 to 0000 UTC 21 April 2019
Forecast type: BECOMING: Conditions expected to become as follows by 1800 UTC 20 April 2019
Winds: from the ENE (60 degrees) at 9 MPH (8 knots; 4.1 m/s)
Visibility: 5 miles (8 km)
Ceiling: unknown
Clouds: missing
Weather: no significant weather forecast for this period